Bookmark and Share
Track history (hours):
 

PrentiSS Brown

More information available from US FCC via Universal Licensing System and Coast Guard Vessel Documentation Center.

Last reported at 2014-Apr-17 03:33 UTC. Time now 2014-Apr-17 04:00 UTC.
Position N 45°20' W 085°19'.

; draft 5.4 m.

Type: Other ship. MMSI: 366922280.

NotesDate/timePositionNaut miles runAvg speedWind from/ knotsBaromVisibWave heightAir tempDewpointWater temp
2014-Apr-17 03:33N 45°20' W 085°19'0 0.1
2014-Apr-17 02:33N 45°20' W 085°19'0 0.1
2014-Apr-17 01:33N 45°20' W 085°19'6 6.4
2014-Apr-17 00:33N 45°16' W 085°26'8 7.8
2014-Apr-16 23:33N 45°13' W 085°36'5 4.7
2014-Apr-16 22:33N 45°12' W 085°42'3 3.0
2014-Apr-16 21:33N 45°10' W 085°45'1 1.2
2014-Apr-16 20:33N 45°10' W 085°47'1 1.3
2014-Apr-16 19:33N 45°10' W 085°49'2 2.0
2014-Apr-16 18:33N 45°10' W 085°52'2 2.3
2014-Apr-16 17:32N 45°09' W 085°55'  
2014-Apr-12 23:15N 45°12' W 085°60'6 9.0
2014-Apr-12 22:33N 45°13' W 085°51'6 5.6
2014-Apr-12 21:33N 45°13' W 085°43'3 3.4
2014-Apr-12 20:34N 45°12' W 085°39'7 7.0
2014-Apr-12 19:34N 45°15' W 085°30'5 4.8
2014-Apr-12 18:34N 45°18' W 085°24'1 0.9
2014-Apr-12 17:34N 45°18' W 085°23'3 3.1
2014-Apr-12 16:34N 45°20' W 085°20'0 0.1
2014-Apr-12 15:34N 45°20' W 085°20'0 0.0
2014-Apr-12 14:34N 45°20' W 085°20'0 0.0
2014-Apr-12 13:34N 45°20' W 085°20'0 0.0
2014-Apr-12 12:34N 45°20' W 085°20'0 0.0
2014-Apr-12 11:34N 45°20' W 085°20'0 0.0
2014-Apr-12 10:34N 45°20' W 085°20'0 0.0
2014-Apr-12 09:33N 45°20' W 085°20'0 0.0
2014-Apr-12 08:34N 45°20' W 085°20'0 0.0
2014-Apr-12 07:34N 45°20' W 085°20'0 0.0
2014-Apr-12 06:33N 45°20' W 085°20'0 0.0
2014-Apr-12 05:34N 45°20' W 085°20'0 0.0
2014-Apr-12 04:33N 45°20' W 085°20'0 0.0
2014-Apr-12 03:33N 45°20' W 085°20'0 0.0
2014-Apr-12 02:34N 45°20' W 085°20'0 0.0
2014-Apr-12 01:33N 45°20' W 085°20'0 0.0
2014-Apr-12 00:33N 45°20' W 085°20'0 0.0
2014-Apr-11 23:33N 45°20' W 085°20'0 0.0
2014-Apr-11 22:34N 45°20' W 085°20'0 0.0
2014-Apr-11 21:33N 45°20' W 085°20'0 0.0
2014-Apr-11 20:33N 45°20' W 085°20'0 0.0
2014-Apr-11 19:33N 45°20' W 085°20'0 0.1
2014-Apr-11 18:34N 45°20' W 085°20'0 0.2
2014-Apr-11 17:33N 45°20' W 085°20'0 0.0
2014-Apr-11 16:34N 45°20' W 085°20'0 0.0
2014-Apr-11 15:33N 45°20' W 085°20'0 0.0
2014-Apr-11 14:34N 45°20' W 085°20'0 0.0
2014-Apr-11 13:33N 45°20' W 085°20'0 0.0
2014-Apr-11 12:34N 45°20' W 085°20'0 0.0
2014-Apr-11 11:34N 45°20' W 085°20'0 0.0
2014-Apr-11 10:33N 45°20' W 085°20'0 0.0
2014-Apr-11 09:33N 45°20' W 085°20'0 0.0
2014-Apr-11 08:34N 45°20' W 085°20'0 0.0
2014-Apr-11 07:33N 45°20' W 085°20'0 0.0
2014-Apr-11 06:34N 45°20' W 085°20'0 0.0
2014-Apr-11 05:33N 45°20' W 085°20'1 1.1
2014-Apr-11 04:33N 45°20' W 085°18'1 1.1
2014-Apr-11 03:33N 45°19' W 085°17'1 0.5
2014-Apr-11 02:34N 45°19' W 085°18'0 0.0
2014-Apr-11 01:34N 45°19' W 085°18'0 0.0
2014-Apr-11 00:33N 45°19' W 085°18'0 0.0
2014-Apr-10 23:34N 45°19' W 085°18'0 0.0
2014-Apr-10 22:34N 45°19' W 085°18'0 0.0
2014-Apr-10 21:34N 45°19' W 085°18'0 0.0
2014-Apr-10 20:33N 45°19' W 085°18'0 0.0
2014-Apr-10 19:34N 45°19' W 085°18'0 0.0
2014-Apr-10 18:34N 45°19' W 085°18'0 0.0
2014-Apr-10 17:33N 45°19' W 085°18'0 0.0
2014-Apr-10 16:33N 45°19' W 085°18'0 0.0
2014-Apr-10 15:34N 45°19' W 085°18'0 0.0
2014-Apr-10 14:34N 45°19' W 085°18'0 0.0
2014-Apr-10 13:33N 45°19' W 085°18'0 0.0
2014-Apr-10 12:34N 45°19' W 085°18'0 0.0
2014-Apr-10 11:34N 45°19' W 085°18'0 0.0
2014-Apr-10 10:33N 45°19' W 085°18'0 0.0
2014-Apr-10 09:33N 45°19' W 085°18'0 0.0
2014-Apr-10 08:33N 45°19' W 085°18'0 0.0
2014-Apr-10 07:33N 45°19' W 085°18'0 0.0
2014-Apr-10 06:33N 45°19' W 085°18'0 0.0
2014-Apr-10 05:33N 45°19' W 085°18'0 0.0
2014-Apr-10 04:33N 45°19' W 085°18'0 0.0
2014-Apr-10 03:33N 45°19' W 085°18'0 0.0
2014-Apr-10 02:33N 45°19' W 085°18'0 0.0
2014-Apr-10 01:33N 45°19' W 085°18'0 0.0
2014-Apr-10 00:33N 45°19' W 085°18'0 0.0
2014-Apr-09 23:34N 45°19' W 085°18'0 0.0
2014-Apr-09 22:33N 45°19' W 085°18'0 0.0
2014-Apr-09 21:33N 45°19' W 085°18'0 0.0
2014-Apr-09 20:33N 45°19' W 085°18'0 0.0
2014-Apr-09 19:34N 45°19' W 085°18'0 0.0
2014-Apr-09 18:33N 45°19' W 085°18'0 0.0
2014-Apr-09 17:33N 45°19' W 085°18'0 0.0
2014-Apr-09 16:33N 45°19' W 085°18'1 0.6
2014-Apr-09 15:34N 45°19' W 085°17'1 1.2
2014-Apr-09 14:34N 45°20' W 085°18'1 0.8
2014-Apr-09 13:34N 45°20' W 085°19'2 1.5
2014-Apr-09 12:34N 45°20' W 085°22'0 0.3
2014-Apr-09 11:34N 45°20' W 085°22'0 0.1
2014-Apr-09 10:33N 45°20' W 085°22'0 0.0
2014-Apr-09 09:34N 45°20' W 085°22'0 0.0
2014-Apr-09 08:34N 45°20' W 085°22'0 0.0
2014-Apr-09 07:34N 45°20' W 085°22'0 0.0
2014-Apr-09 06:33N 45°20' W 085°22'0 0.0
2014-Apr-09 05:34N 45°20' W 085°22'0 0.2
2014-Apr-09 04:33N 45°20' W 085°22'1 0.6
2014-Apr-09 03:33N 45°20' W 085°23'1 0.5
2014-Apr-09 02:33N 45°20' W 085°24'4 3.7
2014-Apr-09 01:33N 45°21' W 085°29'2 1.8
2014-Apr-09 00:33N 45°22' W 085°31'0 0.0
2014-Apr-08 23:33N 45°22' W 085°31'0 0.0
2014-Apr-08 22:33N 45°22' W 085°31'0 0.1
2014-Apr-08 21:33N 45°22' W 085°31'0 0.0
2014-Apr-08 20:33N 45°22' W 085°31'0 0.0
2014-Apr-08 19:33N 45°22' W 085°31'0 0.0
2014-Apr-08 18:33N 45°22' W 085°31'1 1.2
2014-Apr-08 17:33N 45°23' W 085°32'6 6.2
2014-Apr-08 16:34N 45°28' W 085°37'4 4.1
2014-Apr-08 15:34N 45°30' W 085°42'5 5.4
2014-Apr-08 14:34N 45°32' W 085°49'7 5.8
2014-Apr-08 13:25N 45°32' W 085°59'  

Dump ship's entire track history

sailing weather and tide predictions

PrentiSS Brown — WDE6848 — position and weather